createdAt,value
2019-02-28T00:02:06.460Z,10.52
2019-02-28T00:04:38.425Z,10.51
2019-02-28T00:07:10.479Z,10.51
2019-02-28T00:09:42.446Z,10.48
2019-02-28T00:12:14.450Z,10.47
2019-02-28T00:14:46.395Z,10.44
2019-02-28T00:17:18.352Z,10.42
2019-02-28T00:19:50.331Z,10.41
2019-02-28T00:22:22.322Z,10.37
2019-02-28T00:24:54.293Z,10.37
2019-02-28T00:27:26.257Z,10.36
2019-02-28T00:29:58.235Z,10.34
2019-02-28T00:32:30.203Z,10.30
2019-02-28T00:35:02.166Z,10.29
2019-02-28T00:37:34.497Z,10.27
2019-02-28T00:40:09.403Z,10.24
2019-02-28T00:42:41.413Z,10.22
2019-02-28T00:45:15.716Z,10.20
2019-02-28T00:47:48.405Z,10.18
2019-02-28T00:50:20.552Z,10.18
2019-02-28T00:52:52.518Z,10.15
2019-02-28T00:55:24.502Z,10.14
2019-02-28T00:57:56.525Z,10.12
2019-02-28T01:00:28.505Z,10.09
2019-02-28T01:03:01.005Z,10.07
2019-02-28T01:05:33.250Z,10.05
2019-02-28T01:08:05.278Z,10.01
2019-02-28T01:10:39.392Z,10.00
2019-02-28T01:13:11.291Z,9.97
2019-02-28T01:15:45.093Z,9.96
2019-02-28T01:18:17.580Z,9.94
2019-02-28T01:20:50.730Z,9.93
2019-02-28T01:23:22.954Z,9.92
2019-02-28T01:25:54.909Z,9.91
2019-02-28T01:28:29.690Z,9.90
2019-02-28T01:31:00.545Z,9.88
2019-02-28T01:33:32.693Z,9.87
2019-02-28T01:36:04.684Z,9.86
2019-02-28T01:38:37.089Z,9.84
2019-02-28T01:41:11.233Z,9.82
2019-02-28T01:43:42.711Z,9.79
2019-02-28T01:46:17.227Z,9.77
2019-02-28T01:48:48.596Z,9.76
2019-02-28T01:51:21.032Z,9.75
2019-02-28T01:53:53.641Z,9.73
2019-02-28T01:56:26.684Z,9.72
2019-02-28T01:58:58.632Z,9.71
2019-02-28T02:01:30.993Z,9.68
2019-02-28T02:04:03.865Z,9.65
2019-02-28T02:06:36.155Z,9.64
2019-02-28T02:09:10.979Z,9.62
2019-02-28T02:11:41.906Z,9.60
2019-02-28T02:14:13.873Z,9.58
2019-02-28T02:16:46.198Z,9.57
2019-02-28T02:19:18.811Z,9.54
2019-02-28T02:21:50.996Z,9.53
2019-02-28T02:24:24.377Z,9.51
2019-02-28T02:26:56.641Z,9.49
2019-02-28T02:29:28.622Z,9.48
2019-02-28T02:32:02.365Z,9.48
2019-02-28T02:34:34.341Z,9.46
2019-02-28T02:37:06.474Z,9.45
2019-02-28T02:39:38.450Z,9.43
2019-02-28T02:42:11.651Z,9.42
2019-02-28T02:44:43.790Z,9.41
2019-02-28T02:47:15.820Z,9.41
2019-02-28T02:49:56.155Z,9.41
2019-02-28T02:52:25.837Z,9.40
2019-02-28T02:54:55.124Z,9.40
2019-02-28T02:57:27.093Z,9.39
2019-02-28T02:59:59.070Z,9.38
2019-02-28T03:02:33.215Z,9.37
2019-02-28T03:05:06.143Z,9.37
2019-02-28T03:07:38.096Z,9.36
2019-02-28T03:10:17.549Z,9.34
2019-02-28T03:12:48.211Z,9.33
2019-02-28T03:15:25.918Z,9.31
2019-02-28T03:17:54.107Z,9.29
2019-02-28T03:20:26.086Z,9.27
2019-02-28T03:23:02.154Z,9.26
2019-02-28T03:25:31.725Z,9.23
2019-02-28T03:28:03.682Z,9.21
2019-02-28T03:30:35.679Z,9.20
2019-02-28T03:33:07.710Z,9.19
2019-02-28T03:35:43.380Z,9.18
2019-02-28T03:38:13.364Z,9.16
2019-02-28T03:40:45.365Z,9.16
2019-02-28T03:43:17.588Z,9.15
2019-02-28T03:45:49.558Z,9.12
2019-02-28T03:48:21.512Z,9.10
2019-02-28T03:50:55.394Z,9.07
2019-02-28T03:53:27.140Z,9.06
2019-02-28T03:55:59.113Z,9.04
2019-02-28T03:58:31.428Z,9.01
2019-02-28T04:01:08.788Z,8.99
2019-02-28T04:03:37.475Z,8.96
2019-02-28T04:06:09.435Z,8.94
2019-02-28T04:08:41.493Z,8.91
2019-02-28T04:11:13.475Z,8.89
2019-02-28T04:13:45.449Z,8.87
2019-02-28T04:16:17.437Z,8.85
2019-02-28T04:18:49.473Z,8.83
2019-02-28T04:21:21.455Z,8.82
2019-02-28T04:23:53.415Z,8.81
2019-02-28T04:26:29.703Z,8.79
2019-02-28T04:28:59.340Z,8.78
2019-02-28T04:31:31.305Z,8.76
2019-02-28T04:34:03.313Z,8.75
2019-02-28T04:36:35.809Z,8.73
2019-02-28T04:39:08.519Z,8.71
2019-02-28T04:41:40.493Z,8.70
2019-02-28T04:44:15.302Z,8.67
2019-02-28T04:46:46.145Z,8.65
2019-02-28T04:49:21.737Z,8.64
2019-02-28T04:51:51.798Z,8.62
2019-02-28T04:54:24.642Z,8.60
2019-02-28T04:56:57.428Z,8.56
2019-02-28T04:59:31.609Z,8.54
2019-02-28T05:02:04.420Z,8.52
2019-02-28T05:04:36.845Z,8.51
2019-02-28T05:07:08.934Z,8.49
2019-02-28T05:09:40.911Z,8.47
2019-02-28T05:12:13.225Z,8.45
2019-02-28T05:14:45.578Z,8.44
2019-02-28T05:17:19.384Z,8.42
2019-02-28T05:19:51.591Z,8.39
2019-02-28T05:22:24.455Z,8.37
2019-02-28T05:24:58.111Z,8.36
2019-02-28T05:27:34.897Z,8.34
2019-02-28T05:30:06.788Z,8.31
2019-02-28T05:32:38.735Z,8.29
2019-02-28T05:35:10.961Z,8.27
2019-02-28T05:37:46.660Z,8.27
2019-02-28T05:40:17.766Z,8.27
2019-02-28T05:42:49.739Z,8.27
2019-02-28T05:45:21.774Z,8.25
2019-02-28T05:47:53.739Z,8.23
2019-02-28T05:50:25.787Z,8.22
2019-02-28T05:52:57.763Z,8.20
2019-02-28T05:55:29.790Z,8.19
2019-02-28T05:58:01.940Z,8.20
2019-02-28T06:00:37.034Z,8.18
2019-02-28T06:03:07.810Z,8.16
2019-02-28T06:05:39.782Z,8.16
2019-02-28T06:08:11.804Z,8.15
2019-02-28T06:10:44.569Z,8.16
2019-02-28T06:13:18.237Z,8.18
2019-02-28T06:15:51.041Z,8.19
2019-02-28T06:18:22.998Z,8.19
2019-02-28T06:20:55.164Z,8.17
2019-02-28T06:23:27.244Z,8.18
2019-02-28T06:26:00.682Z,8.20
2019-02-28T06:28:32.948Z,8.19
2019-02-28T06:31:05.482Z,8.21
2019-02-28T06:33:37.526Z,8.23
2019-02-28T06:36:09.487Z,8.24
2019-02-28T06:38:41.464Z,8.23
2019-02-28T06:41:13.417Z,8.21
2019-02-28T06:43:45.392Z,8.22
2019-02-28T06:46:17.421Z,8.21
2019-02-28T06:48:49.386Z,8.12
2019-02-28T06:51:21.426Z,8.05
2019-02-28T06:53:53.406Z,7.95
2019-02-28T06:56:25.375Z,7.91
2019-02-28T06:58:57.363Z,7.84
2019-02-28T07:01:29.707Z,7.78
2019-02-28T07:04:01.726Z,7.80
2019-02-28T07:06:35.923Z,7.84
2019-02-28T07:09:07.859Z,7.86
2019-02-28T07:11:39.824Z,7.84
2019-02-28T07:14:13.805Z,7.84
2019-02-28T07:16:45.918Z,7.79
2019-02-28T07:19:17.890Z,7.75
2019-02-28T07:21:49.868Z,7.68
2019-02-28T07:24:21.831Z,7.70
2019-02-28T07:26:53.988Z,7.74
2019-02-28T07:29:25.951Z,7.78
2019-02-28T07:32:01.334Z,7.76
2019-02-28T07:34:31.598Z,7.77
2019-02-28T07:37:03.594Z,7.80
2019-02-28T07:39:36.605Z,7.83
2019-02-28T07:42:09.727Z,7.75
2019-02-28T07:44:41.759Z,7.72
2019-02-28T07:47:17.130Z,7.70
2019-02-28T07:49:49.991Z,7.71
2019-02-28T07:52:21.435Z,7.73
2019-02-28T07:54:55.796Z,7.80
2019-02-28T07:57:27.500Z,7.86
2019-02-28T08:00:00.055Z,7.88
2019-02-28T08:02:32.007Z,7.87
2019-02-28T08:05:05.249Z,7.85
2019-02-28T08:07:37.211Z,7.88
2019-02-28T08:10:19.592Z,7.92
2019-02-28T08:12:51.563Z,7.92
2019-02-28T08:15:30.724Z,7.90
2019-02-28T08:18:02.679Z,7.88
2019-02-28T08:20:35.087Z,7.90
2019-02-28T08:23:07.049Z,7.94
2019-02-28T08:25:39.700Z,7.98
2019-02-28T08:28:12.703Z,8.01
2019-02-28T08:30:44.713Z,8.01
2019-02-28T08:33:17.171Z,8.00
2019-02-28T08:35:49.342Z,8.04
2019-02-28T08:38:21.576Z,8.07
2019-02-28T08:40:53.551Z,8.07
2019-02-28T08:43:27.406Z,8.06
2019-02-28T08:45:59.180Z,8.05
2019-02-28T08:48:32.438Z,8.04
2019-02-28T08:51:05.219Z,7.99
2019-02-28T08:53:37.174Z,7.98
2019-02-28T08:56:11.007Z,8.00
2019-02-28T08:58:42.860Z,7.98
2019-02-28T09:01:14.926Z,8.01
2019-02-28T09:03:47.159Z,8.04
2019-02-28T09:06:19.146Z,8.09
2019-02-28T09:08:51.413Z,8.12
2019-02-28T09:11:23.426Z,8.10
2019-02-28T09:13:55.382Z,8.06
2019-02-28T09:16:27.359Z,8.08
2019-02-28T09:19:00.868Z,8.10
2019-02-28T09:21:33.567Z,8.09
2019-02-28T09:24:05.650Z,8.09
2019-02-28T09:26:37.606Z,8.07
2019-02-28T09:29:09.594Z,8.08
2019-02-28T09:31:41.554Z,8.06
2019-02-28T09:34:13.629Z,8.10
2019-02-28T09:36:45.616Z,8.09
2019-02-28T09:39:19.571Z,8.15
2019-02-28T09:41:51.558Z,8.20
2019-02-28T09:44:23.575Z,8.19
2019-02-28T09:46:55.937Z,8.20
2019-02-28T09:49:27.892Z,8.21
2019-02-28T09:51:59.986Z,8.22
2019-02-28T09:54:32.083Z,8.22
2019-02-28T09:57:04.067Z,8.31
2019-02-28T09:59:37.881Z,8.29
2019-02-28T10:02:09.862Z,8.33
2019-02-28T10:04:41.852Z,8.32
2019-02-28T10:07:14.158Z,8.30
2019-02-28T10:09:47.232Z,8.32
2019-02-28T10:12:20.189Z,8.35
2019-02-28T10:14:52.758Z,8.40
2019-02-28T10:17:25.919Z,8.13
2019-02-28T10:19:58.685Z,8.45
2019-02-28T10:22:30.656Z,8.49
2019-02-28T10:25:03.628Z,8.51
2019-02-28T10:27:36.378Z,8.51
2019-02-28T10:30:15.773Z,8.54
2019-02-28T10:32:46.730Z,8.52
2019-02-28T10:35:19.041Z,8.52
2019-02-28T10:37:51.028Z,8.54
2019-02-28T10:40:29.027Z,8.58
2019-02-28T10:43:01.024Z,8.60
2019-02-28T10:45:33.085Z,8.63
2019-02-28T10:48:05.071Z,8.63
2019-02-28T10:50:38.822Z,8.61
2019-02-28T10:53:10.859Z,8.56
2019-02-28T10:55:43.411Z,8.58
2019-02-28T10:58:16.184Z,8.63
2019-02-28T11:00:49.420Z,8.71
2019-02-28T11:03:21.890Z,8.78
2019-02-28T11:05:54.502Z,8.84
2019-02-28T11:08:26.571Z,8.90
2019-02-28T11:10:59.266Z,8.94
2019-02-28T11:13:32.931Z,8.93
2019-02-28T11:16:05.238Z,8.96
2019-02-28T11:18:43.852Z,8.93
2019-02-28T11:21:16.615Z,8.94
2019-02-28T11:23:50.074Z,8.65
2019-02-28T11:26:22.310Z,8.89
2019-02-28T11:28:54.267Z,8.87
2019-02-28T11:31:26.883Z,8.90
2019-02-28T11:33:58.979Z,8.92
2019-02-28T11:36:34.123Z,8.91
2019-02-28T11:39:06.639Z,8.90
2019-02-28T11:41:38.595Z,8.91
2019-02-28T11:44:12.044Z,8.97
2019-02-28T11:46:45.217Z,8.97
2019-02-28T11:49:28.615Z,8.99
2019-02-28T11:52:00.051Z,8.99
2019-02-28T11:54:32.221Z,9.01
2019-02-28T11:57:06.704Z,9.03
2019-02-28T11:59:37.948Z,9.04
2019-02-28T12:02:09.939Z,9.04
2019-02-28T12:04:41.964Z,9.04
2019-02-28T12:07:14.125Z,8.98
2019-02-28T12:09:46.048Z,8.87
2019-02-28T12:12:18.019Z,8.85
2019-02-28T12:14:50.061Z,8.88
2019-02-28T12:17:22.032Z,8.87
2019-02-28T12:19:54.008Z,8.89
2019-02-28T12:22:26.028Z,8.94
2019-02-28T12:24:58.929Z,8.96
2019-02-28T12:27:30.975Z,8.97
2019-02-28T12:30:02.971Z,9.00
2019-02-28T12:32:35.006Z,9.00
2019-02-28T12:35:08.177Z,9.00
2019-02-28T12:37:40.214Z,8.95
2019-02-28T12:40:27.979Z,8.87
2019-02-28T12:42:59.973Z,8.90
2019-02-28T12:45:35.906Z,8.90
2019-02-28T12:48:08.142Z,8.88
2019-02-28T12:50:40.286Z,8.90
2019-02-28T12:53:12.322Z,8.93
2019-02-28T12:55:44.465Z,8.93
2019-02-28T12:58:16.448Z,8.92
2019-02-28T13:00:48.468Z,8.85
2019-02-28T13:03:21.190Z,8.85
2019-02-28T13:05:53.351Z,8.83
2019-02-28T13:08:25.496Z,8.83
2019-02-28T13:11:03.180Z,8.83
2019-02-28T13:13:44.272Z,8.84
2019-02-28T13:16:17.387Z,8.88
2019-02-28T13:18:49.931Z,8.87
2019-02-28T13:21:22.343Z,8.89
2019-02-28T13:23:54.481Z,8.89
2019-02-28T13:26:26.849Z,8.86
2019-02-28T13:28:58.833Z,8.89
2019-02-28T13:31:31.434Z,8.83
2019-02-28T13:34:04.487Z,8.83
2019-02-28T13:36:36.504Z,8.84
2019-02-28T13:39:09.526Z,8.85
2019-02-28T13:41:42.382Z,8.82
2019-02-28T13:44:14.387Z,8.76
2019-02-28T13:46:46.490Z,8.72
2019-02-28T13:49:18.511Z,8.76
2019-02-28T13:51:50.517Z,8.85
2019-02-28T13:54:22.504Z,8.88
2019-02-28T13:56:54.477Z,8.90
2019-02-28T13:59:28.457Z,8.94
2019-02-28T14:02:00.155Z,8.98
2019-02-28T14:04:32.115Z,8.99
2019-02-28T14:07:04.337Z,8.99
2019-02-28T14:09:36.436Z,8.97
2019-02-28T14:12:08.393Z,8.97
2019-02-28T14:14:42.137Z,8.97
2019-02-28T14:17:14.088Z,9.02
2019-02-28T14:19:46.234Z,9.02
2019-02-28T14:22:18.202Z,9.02
2019-02-28T14:24:50.183Z,9.05
2019-02-28T14:27:25.218Z,9.10
2019-02-28T14:29:55.808Z,9.12
2019-02-28T14:32:27.794Z,9.12
2019-02-28T14:34:59.951Z,9.12
2019-02-28T14:37:33.195Z,9.15
2019-02-28T14:40:14.602Z,9.18
2019-02-28T14:42:47.053Z,9.22
2019-02-28T14:45:29.460Z,9.19
2019-02-28T14:48:04.391Z,9.14
2019-02-28T14:50:35.161Z,9.15
2019-02-28T14:53:07.355Z,9.17
2019-02-28T14:55:39.328Z,9.21
2019-02-28T14:58:11.288Z,9.26
2019-02-28T15:00:43.487Z,9.26
2019-02-28T15:03:15.470Z,9.24
2019-02-28T15:05:47.538Z,9.18
2019-02-28T15:08:19.632Z,9.13
2019-02-28T15:10:53.193Z,9.10
2019-02-28T15:13:25.673Z,9.14
2019-02-28T15:15:57.628Z,9.17
2019-02-28T15:18:29.694Z,9.22
2019-02-28T15:21:04.584Z,9.25
2019-02-28T15:23:35.977Z,9.26
2019-02-28T15:26:08.006Z,9.24
2019-02-28T15:28:39.995Z,9.23
2019-02-28T15:31:13.665Z,9.22
2019-02-28T15:33:45.681Z,9.20
2019-02-28T15:36:17.704Z,9.20
2019-02-28T15:38:49.699Z,9.22
2019-02-28T15:41:24.530Z,9.23
2019-02-28T15:43:56.481Z,9.19
2019-02-28T15:46:28.517Z,9.17
2019-02-28T15:49:00.654Z,9.14
2019-02-28T15:51:32.603Z,9.13
2019-02-28T15:54:05.081Z,9.11
2019-02-28T15:56:37.480Z,9.10
2019-02-28T15:59:11.633Z,9.08
2019-02-28T16:01:43.211Z,9.06
2019-02-28T16:04:15.163Z,9.03
2019-02-28T16:06:47.156Z,9.01
2019-02-28T16:09:21.433Z,8.99
2019-02-28T16:11:52.780Z,8.96
2019-02-28T16:14:24.783Z,8.94
2019-02-28T16:17:00.339Z,8.91
2019-02-28T16:19:30.662Z,8.88
2019-02-28T16:22:03.009Z,8.85
2019-02-28T16:24:36.786Z,8.82
2019-02-28T16:27:09.619Z,8.78
2019-02-28T16:29:41.894Z,8.75
2019-02-28T16:32:15.120Z,8.72
2019-02-28T16:34:47.780Z,8.69
2019-02-28T16:37:19.778Z,8.65
2019-02-28T16:39:51.726Z,8.62
2019-02-28T16:42:23.753Z,8.57
2019-02-28T16:44:55.713Z,8.54
2019-02-28T16:47:27.839Z,8.51
2019-02-28T16:49:59.803Z,8.48
2019-02-28T16:52:31.773Z,8.45
2019-02-28T16:55:04.815Z,8.41
2019-02-28T16:57:36.816Z,8.36
2019-02-28T17:00:17.535Z,8.34
2019-02-28T17:02:49.840Z,8.30
2019-02-28T17:05:26.676Z,8.27
2019-02-28T17:07:55.789Z,8.25
2019-02-28T17:10:35.276Z,8.23
2019-02-28T17:13:09.765Z,8.23
2019-02-28T17:15:46.195Z,8.22
2019-02-28T17:18:21.654Z,8.20
2019-02-28T17:20:53.703Z,8.17
2019-02-28T17:23:25.821Z,8.15
2019-02-28T17:25:57.799Z,8.12
2019-02-28T17:28:50.885Z,8.11
2019-02-28T17:31:27.459Z,8.08
2019-02-28T17:33:59.618Z,8.04
2019-02-28T17:36:31.751Z,8.02
2019-02-28T17:39:04.433Z,8.01
2019-02-28T17:41:37.144Z,8.00
2019-02-28T17:44:38.598Z,7.97
2019-02-28T17:47:15.334Z,7.94
2019-02-28T17:50:17.365Z,7.93
2019-02-28T17:52:56.778Z,7.90
2019-02-28T17:56:03.873Z,7.89
2019-02-28T17:59:06.180Z,7.84
2019-02-28T18:01:57.736Z,7.82
2019-02-28T18:04:46.374Z,7.81
2019-02-28T18:08:07.014Z,7.80
2019-02-28T18:11:04.383Z,7.78
2019-02-28T18:14:03.766Z,7.77
2019-02-28T18:17:01.348Z,7.75
2019-02-28T18:20:11.327Z,7.73
2019-02-28T18:23:04.368Z,7.73
2019-02-28T18:25:43.625Z,7.75
2019-02-28T18:29:01.814Z,7.78
2019-02-28T18:31:33.310Z,7.81
2019-02-28T18:34:06.101Z,7.85
2019-02-28T18:36:40.197Z,7.90
2019-02-28T18:39:12.933Z,7.94
2019-02-28T18:41:45.927Z,7.99
2019-02-28T18:44:20.420Z,8.04
2019-02-28T18:46:52.717Z,8.06
2019-02-28T18:49:26.632Z,8.08
2019-02-28T18:51:59.703Z,8.09
2019-02-28T18:54:31.855Z,8.09
2019-02-28T18:57:03.833Z,8.12
2019-02-28T18:59:35.813Z,8.13
2019-02-28T19:02:08.088Z,8.15
2019-02-28T19:04:40.770Z,8.16
2019-02-28T19:07:12.745Z,8.18
2019-02-28T19:09:44.705Z,8.19
2019-02-28T19:12:16.702Z,8.22
2019-02-28T19:14:48.722Z,8.23
2019-02-28T19:17:20.692Z,8.24
2019-02-28T19:19:52.739Z,8.26
2019-02-28T19:22:24.698Z,8.28
2019-02-28T19:24:56.665Z,8.30
2019-02-28T19:27:28.623Z,8.31
2019-02-28T19:30:00.595Z,8.32
2019-02-28T19:32:33.913Z,8.33
2019-02-28T19:35:06.130Z,8.34
2019-02-28T19:37:38.098Z,8.34
2019-02-28T19:40:12.857Z,8.37
2019-02-28T19:42:44.838Z,8.37
2019-02-28T19:45:42.692Z,8.38
2019-02-28T19:48:14.691Z,8.36
2019-02-28T19:50:46.635Z,8.36
2019-02-28T19:53:18.600Z,8.35
2019-02-28T19:55:50.563Z,8.36
2019-02-28T19:58:22.596Z,8.36
2019-02-28T20:00:55.017Z,8.36
2019-02-28T20:03:27.010Z,8.35
2019-02-28T20:05:58.981Z,8.35
2019-02-28T20:08:31.012Z,8.34
2019-02-28T20:11:02.964Z,8.32
2019-02-28T20:13:34.926Z,8.32
2019-02-28T20:16:07.036Z,8.30
2019-02-28T20:18:38.995Z,8.31
2019-02-28T20:21:11.897Z,8.30
2019-02-28T20:23:43.852Z,8.27
2019-02-28T20:26:16.017Z,8.26
2019-02-28T20:28:48.339Z,8.25
2019-02-28T20:31:21.075Z,8.23
2019-02-28T20:33:53.019Z,8.20
2019-02-28T20:36:24.989Z,8.16
2019-02-28T20:38:56.936Z,8.15
2019-02-28T20:41:29.179Z,8.11
2019-02-28T20:44:01.133Z,8.10
2019-02-28T20:46:33.114Z,8.09
2019-02-28T20:49:05.152Z,8.08
2019-02-28T20:51:37.663Z,8.06
2019-02-28T20:54:09.616Z,8.05
2019-02-28T20:56:41.577Z,8.04
2019-02-28T20:59:13.575Z,8.03
2019-02-28T21:01:45.866Z,8.01
2019-02-28T21:04:17.822Z,7.98
2019-02-28T21:06:49.794Z,7.95
2019-02-28T21:09:22.124Z,7.92
2019-02-28T21:11:54.083Z,7.89
2019-02-28T21:14:26.026Z,7.85
2019-02-28T21:16:58.112Z,7.83
2019-02-28T21:19:30.055Z,7.78
2019-02-28T21:22:02.347Z,7.76
2019-02-28T21:24:34.316Z,7.73
2019-02-28T21:27:06.260Z,7.70
2019-02-28T21:29:38.209Z,7.66
2019-02-28T21:32:10.189Z,7.65
2019-02-28T21:34:42.138Z,7.61
2019-02-28T21:37:14.103Z,7.59
2019-02-28T21:39:46.507Z,7.58
2019-02-28T21:42:18.461Z,7.56
2019-02-28T21:44:50.749Z,7.55
2019-02-28T21:47:22.705Z,7.54
2019-02-28T21:49:54.665Z,7.53
2019-02-28T21:52:26.622Z,7.50
2019-02-28T21:54:58.601Z,7.48
2019-02-28T21:57:30.552Z,7.46
2019-02-28T22:00:02.825Z,7.49
2019-02-28T22:02:34.782Z,7.49
2019-02-28T22:05:10.945Z,7.51
2019-02-28T22:07:44.484Z,7.51
2019-02-28T22:10:17.795Z,7.52
2019-02-28T22:12:49.755Z,7.53
2019-02-28T22:15:26.560Z,7.55
2019-02-28T22:17:59.066Z,7.57
2019-02-28T22:20:31.045Z,7.58
2019-02-28T22:23:02.996Z,7.60
2019-02-28T22:25:35.261Z,7.58
2019-02-28T22:28:07.211Z,7.57
2019-02-28T22:30:43.871Z,7.57
2019-02-28T22:33:23.514Z,7.56
2019-02-28T22:36:12.323Z,7.56
2019-02-28T22:38:44.684Z,7.57
2019-02-28T22:41:16.942Z,7.56
2019-02-28T22:43:49.028Z,7.54
2019-02-28T22:46:20.979Z,7.53
2019-02-28T22:48:52.943Z,7.52
2019-02-28T22:51:24.891Z,7.48
2019-02-28T22:53:56.863Z,7.46
2019-02-28T22:56:28.809Z,7.47
2019-02-28T22:59:00.798Z,7.47
2019-02-28T23:01:33.577Z,7.47
2019-02-28T23:04:06.188Z,7.48
2019-02-28T23:06:38.445Z,7.48
2019-02-28T23:09:10.466Z,7.50
2019-02-28T23:11:42.428Z,7.50
2019-02-28T23:14:14.379Z,7.48
2019-02-28T23:16:46.339Z,7.47
2019-02-28T23:19:18.291Z,7.44
2019-02-28T23:21:50.329Z,7.41
2019-02-28T23:24:22.279Z,7.39
2019-02-28T23:27:17.752Z,7.37
2019-02-28T23:29:56.934Z,7.34
2019-02-28T23:32:39.421Z,7.33
2019-02-28T23:35:16.562Z,7.30
2019-02-28T23:37:48.517Z,7.31
2019-02-28T23:40:20.851Z,7.31
2019-02-28T23:42:52.829Z,7.33
2019-02-28T23:45:24.799Z,7.33
2019-02-28T23:47:56.749Z,7.33
2019-02-28T23:50:28.719Z,7.32
2019-02-28T23:53:00.655Z,7.30
2019-02-28T23:55:32.625Z,7.29
2019-02-28T23:58:04.580Z,7.26
